createdAt,value
2017-10-20T00:01:48.511Z,98.50
2017-10-20T00:04:18.402Z,98.50
2017-10-20T00:06:47.563Z,98.50
2017-10-20T00:09:16.657Z,98.60
2017-10-20T00:11:46.514Z,98.40
2017-10-20T00:14:16.496Z,98.30
2017-10-20T00:16:46.207Z,98.40
2017-10-20T00:19:15.321Z,98.50
2017-10-20T00:21:44.602Z,98.50
2017-10-20T00:24:13.718Z,98.50
2017-10-20T00:26:42.923Z,98.70
2017-10-20T00:29:12.519Z,98.80
2017-10-20T00:31:43.430Z,98.80
2017-10-20T00:34:12.579Z,98.80
2017-10-20T00:36:43.276Z,98.70
2017-10-20T00:39:12.527Z,98.80
2017-10-20T00:41:41.654Z,98.80
2017-10-20T00:44:10.857Z,98.80
2017-10-20T00:46:39.998Z,98.80
2017-10-20T00:49:09.107Z,98.80
2017-10-20T00:51:39.149Z,98.90
2017-10-20T00:54:08.291Z,99.00
2017-10-20T00:56:38.233Z,99.00
2017-10-20T00:59:07.510Z,99.00
2017-10-20T01:01:36.656Z,99.10
2017-10-20T01:04:05.880Z,99.20
2017-10-20T01:06:35.318Z,99.10
2017-10-20T01:09:04.486Z,99.00
2017-10-20T01:11:34.412Z,98.60
2017-10-20T01:14:06.294Z,98.80
2017-10-20T01:16:36.183Z,99.10
2017-10-20T01:19:05.337Z,99.00
2017-10-20T01:21:36.801Z,99.50
2017-10-20T01:24:05.934Z,99.90
2017-10-20T01:26:35.063Z,99.70
2017-10-20T01:29:05.195Z,99.60
2017-10-20T01:31:36.823Z,99.50
2017-10-20T01:34:09.538Z,99.50
2017-10-20T01:36:38.666Z,99.50
2017-10-20T01:39:07.824Z,99.40
2017-10-20T01:41:37.286Z,99.50
2017-10-20T01:44:06.402Z,99.50
2017-10-20T01:46:35.542Z,99.60
2017-10-20T01:49:06.241Z,99.60
2017-10-20T01:51:35.354Z,99.60
2017-10-20T01:54:04.483Z,99.60
2017-10-20T01:56:34.326Z,99.60
2017-10-20T01:59:03.833Z,99.60
2017-10-20T02:01:32.981Z,99.60
2017-10-20T02:04:03.281Z,99.60
2017-10-20T02:06:32.418Z,99.60
2017-10-20T02:09:02.358Z,99.60
2017-10-20T02:11:33.477Z,99.60
2017-10-20T02:14:02.622Z,99.50
2017-10-20T02:16:31.751Z,99.50
2017-10-20T02:19:01.457Z,99.60
2017-10-20T02:21:30.599Z,99.60
2017-10-20T02:23:59.802Z,99.60
2017-10-20T02:26:29.805Z,99.90
2017-10-20T02:28:59.730Z,99.70
2017-10-20T02:31:28.887Z,99.70
2017-10-20T02:33:58.394Z,99.70
2017-10-20T02:36:27.510Z,99.70
2017-10-20T02:38:56.652Z,99.70
2017-10-20T02:41:26.628Z,99.70
2017-10-20T02:43:55.762Z,99.70
2017-10-20T02:46:24.895Z,99.60
2017-10-20T02:48:54.083Z,99.60
2017-10-20T02:51:23.237Z,99.70
2017-10-20T02:53:53.130Z,99.70
2017-10-20T02:56:23.683Z,99.70
2017-10-20T02:58:52.787Z,99.70
2017-10-20T03:01:21.903Z,99.70
2017-10-20T03:03:51.430Z,99.60
2017-10-20T03:06:21.297Z,99.60
2017-10-20T03:08:50.425Z,99.60
2017-10-20T03:11:19.965Z,99.60
2017-10-20T03:13:49.078Z,99.50
2017-10-20T03:16:18.186Z,99.50
2017-10-20T03:18:48.385Z,99.30
2017-10-20T03:21:17.472Z,99.30
2017-10-20T03:23:50.013Z,99.30
2017-10-20T03:26:19.113Z,99.40
2017-10-20T03:28:48.287Z,99.40
2017-10-20T03:31:18.265Z,99.50
2017-10-20T03:33:47.359Z,99.50
2017-10-20T03:36:19.390Z,99.30
2017-10-20T03:38:48.942Z,99.20
2017-10-20T03:41:18.051Z,99.20
2017-10-20T03:43:47.153Z,99.40
2017-10-20T03:46:16.269Z,99.40
2017-10-20T03:48:45.375Z,99.40
2017-10-20T03:51:14.834Z,99.30
2017-10-20T03:53:43.987Z,99.40
2017-10-20T03:56:13.118Z,99.20
2017-10-20T03:58:42.214Z,99.30
2017-10-20T04:03:52.624Z,99.40
2017-10-20T04:06:23.821Z,99.50
2017-10-20T04:08:53.660Z,99.50
2017-10-20T04:11:28.600Z,99.50
2017-10-20T04:13:58.896Z,99.70
2017-10-20T04:16:35.001Z,99.50
2017-10-20T04:19:11.877Z,99.50
2017-10-20T04:21:43.739Z,99.40
2017-10-20T04:24:12.854Z,99.40
2017-10-20T04:26:42.007Z,99.40
2017-10-20T04:29:11.154Z,99.50
2017-10-20T04:31:40.298Z,99.40
2017-10-20T04:34:09.425Z,99.30
2017-10-20T04:36:40.027Z,99.40
2017-10-20T04:39:09.150Z,99.30
2017-10-20T04:41:38.267Z,99.40
2017-10-20T04:44:08.423Z,99.40
2017-10-20T04:46:38.358Z,99.40
2017-10-20T04:49:07.509Z,99.40
2017-10-20T04:51:36.838Z,99.30
2017-10-20T04:54:06.047Z,99.30
2017-10-20T04:56:35.248Z,99.30
2017-10-20T04:59:04.648Z,99.20
2017-10-20T05:01:33.771Z,99.10
2017-10-20T05:04:02.923Z,99.30
2017-10-20T05:06:32.859Z,99.10
2017-10-20T05:09:02.782Z,99.20
2017-10-20T05:11:32.691Z,99.20
2017-10-20T05:14:02.297Z,99.10
2017-10-20T05:16:31.440Z,99.20
2017-10-20T05:19:00.567Z,99.20
2017-10-20T05:21:29.764Z,99.20
2017-10-20T05:23:59.683Z,99.30
2017-10-20T05:26:29.617Z,99.30
2017-10-20T05:29:00.498Z,99.20
2017-10-20T05:31:29.602Z,99.20
2017-10-20T05:33:59.482Z,99.10
2017-10-20T05:36:29.529Z,99.10
2017-10-20T05:38:58.674Z,99.10
2017-10-20T05:41:27.818Z,99.10
2017-10-20T05:43:57.042Z,99.30
2017-10-20T05:46:26.935Z,99.20
2017-10-20T05:48:56.073Z,99.20
2017-10-20T05:51:25.222Z,99.20
2017-10-20T05:53:54.315Z,99.10
2017-10-20T05:56:24.186Z,99.00
2017-10-20T05:58:53.634Z,99.20
2017-10-20T06:01:22.730Z,99.00
2017-10-20T06:03:51.825Z,99.10
2017-10-20T06:06:21.640Z,99.30
2017-10-20T06:08:50.732Z,99.10
2017-10-20T06:11:19.830Z,99.10
2017-10-20T06:13:50.231Z,99.00
2017-10-20T06:16:19.360Z,99.00
2017-10-20T06:18:49.554Z,99.00
2017-10-20T06:21:19.074Z,98.90
2017-10-20T06:23:48.227Z,98.90
2017-10-20T06:26:18.164Z,99.00
2017-10-20T06:28:47.421Z,99.00
2017-10-20T06:31:16.562Z,99.10
2017-10-20T06:33:46.498Z,99.00
2017-10-20T06:36:17.422Z,99.00
2017-10-20T06:38:46.575Z,99.10
2017-10-20T06:41:16.499Z,99.10
2017-10-20T06:43:46.504Z,99.00
2017-10-20T06:46:15.620Z,99.00
2017-10-20T06:48:44.830Z,99.10
2017-10-20T06:51:14.830Z,99.10
2017-10-20T06:53:43.984Z,99.10
2017-10-20T06:56:14.850Z,99.00
2017-10-20T06:58:44.415Z,99.00
2017-10-20T07:01:13.552Z,99.00
2017-10-20T07:03:43.456Z,99.00
2017-10-20T07:06:12.639Z,99.00
2017-10-20T07:08:41.822Z,98.80
2017-10-20T07:11:10.985Z,99.00
2017-10-20T07:13:41.049Z,99.00
2017-10-20T07:16:10.190Z,98.90
2017-10-20T07:21:51.054Z,98.70
2017-10-20T07:24:21.397Z,98.80
2017-10-20T07:26:50.558Z,98.80
2017-10-20T07:29:19.778Z,98.70
2017-10-20T07:31:50.510Z,98.60
2017-10-20T07:34:19.611Z,98.40
2017-10-20T07:36:48.719Z,98.40
2017-10-20T07:39:17.871Z,98.30
2017-10-20T07:41:47.049Z,98.30
2017-10-20T07:44:16.193Z,98.10
2017-10-20T07:46:45.659Z,98.00
2017-10-20T07:49:15.526Z,97.80
2017-10-20T07:51:44.684Z,97.80
2017-10-20T07:54:14.931Z,97.90
2017-10-20T07:56:44.839Z,97.80
2017-10-20T07:59:13.967Z,97.80
2017-10-20T08:01:43.900Z,97.80
2017-10-20T08:04:13.027Z,97.80
2017-10-20T08:06:42.147Z,97.80
2017-10-20T08:09:12.372Z,97.80
2017-10-20T08:11:41.506Z,97.80
2017-10-20T08:14:10.638Z,97.60
2017-10-20T08:16:40.176Z,97.50
2017-10-20T08:19:09.342Z,97.30
2017-10-20T08:21:38.949Z,97.30
2017-10-20T08:24:08.734Z,97.00
2017-10-20T08:26:38.697Z,96.90
2017-10-20T08:29:07.894Z,96.90
2017-10-20T08:31:38.812Z,96.80
2017-10-20T08:34:08.094Z,96.80
2017-10-20T08:36:37.348Z,96.70
2017-10-20T08:39:07.350Z,96.80
2017-10-20T08:41:36.575Z,96.80
2017-10-20T08:44:05.848Z,96.90
2017-10-20T08:46:35.872Z,96.70
2017-10-20T08:49:05.090Z,96.70
2017-10-20T08:51:34.334Z,96.70
2017-10-20T08:54:03.581Z,96.90
2017-10-20T08:56:33.653Z,96.50
2017-10-20T08:59:03.015Z,96.50
2017-10-20T09:01:32.421Z,96.50
2017-10-20T09:04:03.836Z,96.20
2017-10-20T09:06:33.111Z,96.20
2017-10-20T09:09:02.238Z,96.10
2017-10-20T09:11:32.180Z,95.50
2017-10-20T09:14:03.405Z,95.50
2017-10-20T09:16:32.558Z,95.10
2017-10-20T09:19:01.721Z,95.00
2017-10-20T09:21:31.530Z,94.50
2017-10-20T09:24:01.767Z,93.80
2017-10-20T09:26:30.974Z,93.80
2017-10-20T09:29:01.484Z,93.40
2017-10-20T09:31:30.641Z,93.40
2017-10-20T09:33:59.873Z,93.00
2017-10-20T09:36:29.910Z,92.50
2017-10-20T09:38:59.093Z,92.80
2017-10-20T09:41:29.311Z,92.50
2017-10-20T09:44:00.559Z,92.60
2017-10-20T09:46:29.866Z,92.60
2017-10-20T09:48:59.070Z,92.70
2017-10-20T09:51:29.066Z,92.90
2017-10-20T09:53:58.441Z,93.00
2017-10-20T09:56:27.694Z,93.00
2017-10-20T09:58:57.808Z,92.90
2017-10-20T10:01:26.975Z,92.80
2017-10-20T10:03:56.067Z,92.40
2017-10-20T10:06:25.274Z,92.20
2017-10-20T10:08:55.179Z,91.90
2017-10-20T10:11:25.499Z,91.80
2017-10-20T10:13:55.415Z,91.70
2017-10-20T10:16:24.518Z,91.70
2017-10-20T10:18:53.621Z,91.90
2017-10-20T10:21:23.222Z,91.70
2017-10-20T10:23:52.492Z,91.90
2017-10-20T10:26:22.441Z,91.60
2017-10-20T10:28:52.021Z,91.60
2017-10-20T10:31:21.193Z,91.80
2017-10-20T10:33:50.358Z,92.00
2017-10-20T10:36:20.318Z,92.20
2017-10-20T10:38:49.640Z,92.20
2017-10-20T10:41:19.296Z,92.40
2017-10-20T10:43:48.487Z,92.60
2017-10-20T10:46:17.667Z,92.50
2017-10-20T10:48:46.894Z,93.00
2017-10-20T10:51:16.642Z,93.20
2017-10-20T10:53:45.804Z,93.40
2017-10-20T10:56:14.953Z,94.00
2017-10-20T10:58:45.679Z,94.20
2017-10-20T11:01:14.772Z,94.20
2017-10-20T11:03:46.564Z,94.40
2017-10-20T11:09:56.299Z,94.70
2017-10-20T11:12:45.408Z,94.80
2017-10-20T11:15:14.567Z,94.60
2017-10-20T11:17:43.663Z,94.80
2017-10-20T11:20:16.289Z,94.80
2017-10-20T11:22:45.842Z,94.90
2017-10-20T11:25:15.876Z,94.90
2017-10-20T11:27:46.218Z,94.90
2017-10-20T11:30:15.378Z,95.20
2017-10-20T11:32:44.541Z,95.30
2017-10-20T11:35:14.510Z,95.30
2017-10-20T11:37:43.655Z,95.20
2017-10-20T11:40:12.747Z,95.30
2017-10-20T11:42:42.974Z,95.70
2017-10-20T11:45:12.137Z,95.70
2017-10-20T11:47:41.299Z,96.10
2017-10-20T11:50:11.527Z,96.10
2017-10-20T11:52:40.679Z,96.40
2017-10-20T11:55:09.866Z,96.40
2017-10-20T11:57:39.993Z,96.50
2017-10-20T12:00:09.145Z,96.80
2017-10-20T12:02:39.182Z,97.10
2017-10-20T12:05:09.898Z,97.10
2017-10-20T12:07:39.014Z,97.10
2017-10-20T12:10:08.190Z,97.00
2017-10-20T12:12:37.489Z,97.10
2017-10-20T12:15:06.767Z,97.30
2017-10-20T12:17:36.785Z,97.70
2017-10-20T12:20:06.931Z,97.40
2017-10-20T12:22:36.178Z,97.40
2017-10-20T12:25:05.320Z,97.40
2017-10-20T12:27:35.312Z,97.60
2017-10-20T12:30:05.852Z,97.50
2017-10-20T12:32:35.109Z,97.80
2017-10-20T12:35:05.952Z,97.70
2017-10-20T12:37:35.914Z,97.50
2017-10-20T12:40:05.065Z,97.60
2017-10-20T12:42:35.187Z,97.70
2017-10-20T12:45:05.148Z,97.70
2017-10-20T12:47:34.323Z,97.50
2017-10-20T12:50:04.959Z,97.80
2017-10-20T12:52:34.114Z,97.90
2017-10-20T12:55:03.370Z,97.80
2017-10-20T12:57:33.277Z,98.00
2017-10-20T13:00:05.142Z,98.10
2017-10-20T13:02:35.363Z,98.10
2017-10-20T13:05:04.585Z,98.30
2017-10-20T13:07:33.851Z,98.30
2017-10-20T13:10:03.481Z,98.20
2017-10-20T13:12:33.599Z,98.10
2017-10-20T13:15:03.822Z,98.20
2017-10-20T13:17:33.019Z,98.10
2017-10-20T13:20:03.251Z,97.70
2017-10-20T13:22:32.459Z,97.70
2017-10-20T13:25:01.625Z,97.60
2017-10-20T13:27:30.827Z,97.60
2017-10-20T13:30:00.073Z,97.20
2017-10-20T13:32:30.955Z,96.70
2017-10-20T13:35:00.164Z,96.70
2017-10-20T13:37:29.345Z,96.60
2017-10-20T13:39:59.357Z,96.60
2017-10-20T13:42:28.487Z,96.50
2017-10-20T13:44:57.663Z,96.50
2017-10-20T13:47:28.176Z,96.70
2017-10-20T13:49:57.375Z,96.30
2017-10-20T13:52:26.679Z,96.10
2017-10-20T13:54:57.612Z,96.50
2017-10-20T13:57:27.595Z,96.50
2017-10-20T13:59:57.154Z,96.70
2017-10-20T14:02:26.446Z,96.50
2017-10-20T14:04:55.558Z,96.70
2017-10-20T14:07:25.496Z,96.40
2017-10-20T14:09:56.201Z,96.50
2017-10-20T14:12:25.371Z,96.90
2017-10-20T14:14:54.483Z,96.60
2017-10-20T14:17:24.588Z,96.90
2017-10-20T14:19:53.685Z,96.90
2017-10-20T14:22:22.775Z,96.80
2017-10-20T14:24:53.535Z,96.60
2017-10-20T14:27:22.645Z,96.80
2017-10-20T14:29:51.751Z,96.90
2017-10-20T14:32:21.077Z,96.90
2017-10-20T14:34:50.222Z,97.10
2017-10-20T14:37:20.132Z,97.10
2017-10-20T14:39:50.824Z,97.10
2017-10-20T14:42:19.948Z,97.20
2017-10-20T14:44:49.060Z,97.30
2017-10-20T14:47:20.043Z,97.40
2017-10-20T14:49:49.166Z,97.40
2017-10-20T14:52:19.058Z,97.70
2017-10-20T14:54:48.287Z,97.70
2017-10-20T14:57:17.406Z,97.60
2017-10-20T14:59:46.495Z,97.60
2017-10-20T15:02:16.560Z,97.50
2017-10-20T15:04:45.701Z,97.30
2017-10-20T15:07:14.824Z,97.40
2017-10-20T15:09:44.014Z,97.40
2017-10-20T15:12:19.644Z,97.60
2017-10-20T15:14:49.057Z,97.70
2017-10-20T15:17:18.228Z,97.70
2017-10-20T15:19:47.363Z,97.90
2017-10-20T15:22:16.540Z,97.40
2017-10-20T15:24:46.538Z,97.60
2017-10-20T15:27:19.053Z,97.50
2017-10-20T15:29:48.210Z,97.50
2017-10-20T15:32:17.336Z,97.50
2017-10-20T15:34:46.618Z,97.60
2017-10-20T15:37:15.727Z,97.80
2017-10-20T15:39:44.846Z,98.00
2017-10-20T15:42:14.007Z,97.70
2017-10-20T15:44:43.157Z,97.90
2017-10-20T15:47:12.286Z,97.80
2017-10-20T15:49:42.217Z,97.90
2017-10-20T15:52:12.284Z,97.80
2017-10-20T15:54:41.421Z,97.80
2017-10-20T15:57:10.884Z,97.90
2017-10-20T15:59:40.029Z,97.90
2017-10-20T16:02:09.130Z,98.10
2017-10-20T16:04:38.335Z,98.10
2017-10-20T16:07:07.453Z,98.30
2017-10-20T16:09:37.454Z,98.40
2017-10-20T16:12:07.357Z,98.50
2017-10-20T16:14:36.549Z,98.50
2017-10-20T16:17:05.696Z,98.60
2017-10-20T16:19:35.736Z,98.60
2017-10-20T16:22:06.245Z,98.60
2017-10-20T16:24:35.388Z,98.60
2017-10-20T16:27:04.891Z,98.70
2017-10-20T16:29:34.816Z,98.70
2017-10-20T16:32:04.694Z,99.00
2017-10-20T16:34:33.830Z,99.00
2017-10-20T16:37:04.135Z,99.30
2017-10-20T16:39:33.976Z,99.30
2017-10-20T16:42:04.295Z,99.50
2017-10-20T16:44:35.339Z,99.20
2017-10-20T16:47:04.510Z,99.60
2017-10-20T16:49:35.253Z,99.50
2017-10-20T16:52:05.170Z,99.60
2017-10-20T16:54:34.377Z,99.60
2017-10-20T16:57:04.336Z,99.60
2017-10-20T16:59:34.218Z,99.50
2017-10-20T17:02:03.389Z,99.50
2017-10-20T17:04:33.422Z,99.50
2017-10-20T17:07:02.609Z,99.50
2017-10-20T17:09:31.936Z,99.60
2017-10-20T17:12:02.974Z,99.50
2017-10-20T17:14:32.143Z,99.40
2017-10-20T17:17:01.389Z,99.40
2017-10-20T17:19:31.023Z,99.40
2017-10-20T17:22:00.219Z,99.50
2017-10-20T17:24:31.907Z,99.20
2017-10-20T17:27:01.226Z,99.30
2017-10-20T17:29:30.504Z,99.20
2017-10-20T17:31:59.686Z,99.00
2017-10-20T17:34:28.938Z,99.00
2017-10-20T17:36:59.228Z,98.90
2017-10-20T17:39:28.962Z,98.80
2017-10-20T17:41:58.178Z,98.80
2017-10-20T17:44:27.341Z,98.80
2017-10-20T17:46:57.333Z,98.90
2017-10-20T17:49:27.306Z,98.90
2017-10-20T17:51:56.453Z,98.90
2017-10-20T17:54:27.466Z,98.90
2017-10-20T17:56:56.596Z,98.90
2017-10-20T17:59:25.787Z,99.00
2017-10-20T18:01:55.556Z,98.90
2017-10-20T18:04:24.673Z,99.00
2017-10-20T18:06:53.795Z,99.00
2017-10-20T18:09:23.717Z,99.10
2017-10-20T18:11:52.864Z,99.10
2017-10-20T18:14:22.733Z,99.30
2017-10-20T18:16:51.877Z,99.30
2017-10-20T18:19:20.979Z,99.40
2017-10-20T18:21:50.096Z,99.40
2017-10-20T18:24:20.837Z,99.60
2017-10-20T18:26:49.983Z,99.40
2017-10-20T18:29:19.093Z,99.30
2017-10-20T18:31:49.370Z,99.40
2017-10-20T18:34:18.491Z,99.40
2017-10-20T18:36:47.603Z,99.40
2017-10-20T18:39:17.318Z,99.30
2017-10-20T18:41:46.429Z,99.40
2017-10-20T18:44:16.502Z,99.30
2017-10-20T18:46:46.403Z,99.30
2017-10-20T18:49:15.510Z,99.30
2017-10-20T18:51:44.645Z,99.30
2017-10-20T18:54:14.937Z,99.30
2017-10-20T18:56:45.038Z,99.30
2017-10-20T18:59:15.898Z,99.30
2017-10-20T19:01:45.097Z,99.30
2017-10-20T19:04:14.249Z,99.30
2017-10-20T19:06:44.099Z,99.10
2017-10-20T19:09:13.246Z,99.00
2017-10-20T19:11:43.173Z,99.00
2017-10-20T19:14:13.630Z,98.80
2017-10-20T19:16:42.803Z,98.70
2017-10-20T19:19:12.723Z,98.50
2017-10-20T19:21:42.736Z,98.50
2017-10-20T19:24:12.623Z,98.50
2017-10-20T19:26:41.853Z,98.50
2017-10-20T19:29:11.291Z,98.30
2017-10-20T19:31:41.186Z,98.10
2017-10-20T19:34:10.383Z,98.10
2017-10-20T19:36:39.542Z,98.00
2017-10-20T19:39:09.449Z,97.90
2017-10-20T19:41:38.586Z,97.90
2017-10-20T19:44:09.100Z,97.60
2017-10-20T19:46:38.200Z,97.60
2017-10-20T19:49:07.339Z,97.60
2017-10-20T19:51:37.363Z,97.50
2017-10-20T19:54:08.079Z,97.50
2017-10-20T19:56:37.335Z,97.40
2017-10-20T19:59:07.115Z,97.40
2017-10-20T20:01:36.337Z,97.50
2017-10-20T20:04:05.530Z,97.30
2017-10-20T20:06:34.896Z,97.30
2017-10-20T20:09:05.095Z,97.10
2017-10-20T20:11:34.323Z,97.10
2017-10-20T20:14:04.726Z,97.10
2017-10-20T20:16:35.246Z,97.10
2017-10-20T20:19:04.440Z,97.10
2017-10-20T20:21:34.693Z,97.10
2017-10-20T20:24:03.847Z,97.10
2017-10-20T20:26:34.249Z,97.30
2017-10-20T20:29:03.555Z,97.20
2017-10-20T20:31:34.256Z,97.10
2017-10-20T20:34:03.979Z,97.10
2017-10-20T20:36:33.195Z,97.10
2017-10-20T20:39:04.024Z,97.20
2017-10-20T20:41:33.190Z,97.20
2017-10-20T20:44:03.173Z,97.10
2017-10-20T20:46:32.378Z,97.00
2017-10-20T20:49:01.769Z,96.90
2017-10-20T20:51:31.368Z,96.90
2017-10-20T20:54:00.607Z,96.90
2017-10-20T20:56:30.370Z,96.90
2017-10-20T20:59:01.946Z,97.00
2017-10-20T21:01:32.856Z,97.00
2017-10-20T21:04:02.079Z,97.00
2017-10-20T21:06:32.325Z,97.00
2017-10-20T21:09:01.528Z,97.10
2017-10-20T21:11:33.146Z,97.30
2017-10-20T21:14:02.473Z,97.30
2017-10-20T21:16:31.693Z,97.30
2017-10-20T21:19:01.048Z,97.40
2017-10-20T21:21:30.436Z,97.50
2017-10-20T21:24:00.292Z,97.30
2017-10-20T21:26:29.588Z,97.30
2017-10-20T21:28:59.578Z,97.30
2017-10-20T21:31:29.107Z,97.20
2017-10-20T21:33:58.308Z,97.20
2017-10-20T21:36:27.616Z,97.10
2017-10-20T21:38:57.733Z,97.10
2017-10-20T21:41:27.781Z,97.00
2017-10-20T21:43:56.989Z,96.90
2017-10-20T21:46:27.577Z,97.10
2017-10-20T21:48:57.807Z,96.60
2017-10-20T21:51:27.586Z,96.60
2017-10-20T21:53:56.729Z,96.60
2017-10-20T21:56:28.354Z,96.70
2017-10-20T21:59:01.573Z,96.60
2017-10-20T22:01:31.027Z,96.60
2017-10-20T22:04:01.149Z,96.60
2017-10-20T22:06:30.455Z,96.50
2017-10-20T22:09:00.617Z,96.60
2017-10-20T22:11:30.608Z,96.80
2017-10-20T22:13:59.848Z,96.80
2017-10-20T22:16:30.169Z,96.60
2017-10-20T22:18:59.350Z,96.60
2017-10-20T22:21:28.497Z,96.60
2017-10-20T22:23:57.778Z,96.90
2017-10-20T22:26:26.932Z,96.70
2017-10-20T22:28:56.038Z,96.60
2017-10-20T22:31:25.340Z,96.60
2017-10-20T22:33:54.441Z,96.70
2017-10-20T22:36:23.614Z,96.80
2017-10-20T22:38:52.858Z,96.70
2017-10-20T22:41:22.000Z,96.80
2017-10-20T22:43:52.043Z,96.80
2017-10-20T22:46:21.306Z,96.70
2017-10-20T22:48:50.417Z,96.70
2017-10-20T22:51:19.530Z,97.00
2017-10-20T22:53:49.116Z,96.70
2017-10-20T22:56:18.331Z,96.80
2017-10-20T22:58:47.485Z,96.80
2017-10-20T23:01:16.787Z,96.80
2017-10-20T23:03:46.011Z,96.90
2017-10-20T23:06:15.135Z,97.00
2017-10-20T23:08:44.843Z,97.10
2017-10-20T23:11:13.965Z,97.20
2017-10-20T23:13:43.899Z,97.30
2017-10-20T23:16:13.049Z,97.40
2017-10-20T23:18:42.146Z,97.50
2017-10-20T23:21:11.242Z,97.50
2017-10-20T23:23:42.038Z,97.70
2017-10-20T23:26:11.170Z,97.70
2017-10-20T23:28:40.301Z,97.70
2017-10-20T23:31:10.239Z,98.20
2017-10-20T23:33:40.169Z,97.80
2017-10-20T23:36:09.308Z,97.80
2017-10-20T23:38:39.828Z,97.80
2017-10-20T23:41:08.920Z,97.70
2017-10-20T23:43:38.059Z,97.90
2017-10-20T23:46:07.567Z,97.90
2017-10-20T23:48:36.702Z,97.90
2017-10-20T23:51:06.164Z,97.90
2017-10-20T23:53:35.345Z,97.90
2017-10-20T23:56:05.102Z,97.80
2017-10-20T23:58:34.931Z,97.80
